This is the latest recevied weather packets stored in our database for station/object WD8INF-9. If no packets are shown the sender has not sent any weather packets the latest 1 day(s).
| Time | Temp. | Humidity | Pressure | Rain* | Wind** | Luminosity | Snow |
|---|---|---|---|---|---|---|---|
| 1836274744 | 20.56° C | - | 1016.9 hPa | 0 mm | 0 m/s | - | - |
| 1836274443 | 20.56° C | - | 1016.9 hPa | 0 mm | 0 m/s | - | - |
| 1836274294 | 20° C | - | 1017 hPa | 0 mm | 0 m/s | - | - |
| 1836274143 | 20.56° C | - | 1016.9 hPa | 0 mm | 0 m/s | - | - |
| 1778040902 | 11.67° C | - | 1005.1 hPa | 0 mm | 0 m/s | - | - |
| 1778040602 | 11.67° C | - | 1005.1 hPa | 0 mm | 0 m/s | - | - |
| 1778040302 | 12.22° C | - | 1004.9 hPa | 0 mm | 0 m/s | - | - |
| 1778040002 | 12.22° C | - | 1005.3 hPa | 0 mm | 0.45 m/s, 343° | - | - |
| 1778039701 | 12.78° C | - | 1005.4 hPa | 0 mm | 0 m/s | - | - |
| 1778039100 | 12.78° C | - | 1005 hPa | 0 mm | 0 m/s | - | - |
| 1778038800 | 12.78° C | - | 1005 hPa | 0 mm | 0 m/s | - | - |
| 1778038500 | 13.33° C | - | 1004.7 hPa | 0 mm | 0 m/s | - | - |
| 1778038200 | 13.89° C | - | 1005.1 hPa | 0 mm | 0 m/s | - | - |
| 1778037899 | 13.89° C | - | 1005.3 hPa | 0 mm | 0 m/s | - | - |
| 1778037599 | 14.44° C | - | 1005.3 hPa | 0 mm | 0 m/s | - | - |
| 1778037298 | 15° C | - | 1005.1 hPa | 0 mm | 0 m/s | - | - |
| 1778036998 | 15° C | - | 1005.1 hPa | 0 mm | 0 m/s | - | - |
| 1778036697 | 15° C | - | 1005.7 hPa | 0 mm | 0 m/s | - | - |
| 1778036397 | 15° C | - | 1005.3 hPa | 0 mm | 0 m/s | - | - |
| 1778036095 | 15° C | - | 1006 hPa | 0 mm | 0 m/s | - | - |
| 1778035795 | 15.56° C | - | 1005.9 hPa | 0 mm | 0 m/s | - | - |
| 1778035494 | 15.56° C | - | 1006.2 hPa | 0 mm | 0 m/s | - | - |
| 1778035192 | 15.56° C | - | 1006.1 hPa | 0 mm | 0 m/s | - | - |
| 1778034892 | 15.56° C | - | 1006.3 hPa | 0 mm | 0 m/s | - | - |
| 1778034592 | 15.56° C | - | 1006 hPa | 0 mm | 0 m/s | - | - |
* Rain since midnight (hover to see other rain measurements)
** Current wind speed in m/s (hover to see current wind gust speed)